createdAt,value
2022-08-07T00:00:30.929Z,39.30
2022-08-07T00:05:46.617Z,39.60
2022-08-07T00:11:02.646Z,39.20
2022-08-07T00:16:21.710Z,39.10
2022-08-07T00:21:57.202Z,39.10
2022-08-07T00:27:17.926Z,39.10
2022-08-07T00:32:37.639Z,39.10
2022-08-07T00:37:52.960Z,39.10
2022-08-07T00:43:09.875Z,39.10
2022-08-07T00:48:31.932Z,39.10
2022-08-07T00:53:50.834Z,39.10
2022-08-07T00:59:10.975Z,39.10
2022-08-07T01:04:27.014Z,39.20
2022-08-07T01:10:06.016Z,39.20
2022-08-07T01:15:20.709Z,39.20
2022-08-07T01:20:35.939Z,39.20
2022-08-07T01:25:58.699Z,39.20
2022-08-07T01:31:15.417Z,39.20
2022-08-07T01:36:36.434Z,39.20
2022-08-07T01:42:36.618Z,39.30
2022-08-07T01:48:17.797Z,39.30
2022-08-07T01:53:10.672Z,39.30
2022-08-07T01:58:41.090Z,39.20
2022-08-07T02:04:01.019Z,39.20
2022-08-07T02:09:33.808Z,39.30
2022-08-07T02:14:51.941Z,39.40
2022-08-07T02:20:17.470Z,39.30
2022-08-07T02:26:31.905Z,39.30
2022-08-07T02:31:28.243Z,39.30
2022-08-07T02:36:45.220Z,39.30
2022-08-07T02:42:01.728Z,39.30
2022-08-07T02:47:45.292Z,39.30
2022-08-07T02:53:00.849Z,39.30
2022-08-07T02:58:18.975Z,39.30
2022-08-07T03:03:48.942Z,39.30
2022-08-07T03:09:11.112Z,39.30
2022-08-07T03:14:27.850Z,39.40
2022-08-07T03:19:44.989Z,39.40
2022-08-07T03:25:10.729Z,39.40
2022-08-07T03:30:26.951Z,39.40
2022-08-07T03:35:50.027Z,39.40
2022-08-07T03:41:05.953Z,39.40
2022-08-07T03:46:26.992Z,39.50
2022-08-07T03:51:46.957Z,39.50
2022-08-07T03:57:07.121Z,39.50
2022-08-07T04:02:23.695Z,39.50
2022-08-07T04:07:42.477Z,39.40
2022-08-07T04:13:04.708Z,39.40
2022-08-07T04:18:58.500Z,39.40
2022-08-07T04:24:03.112Z,39.40
2022-08-07T04:29:25.059Z,39.30
2022-08-07T04:34:46.972Z,39.30
2022-08-07T04:40:02.748Z,39.30
2022-08-07T04:45:44.386Z,39.30
2022-08-07T04:50:52.993Z,39.30
2022-08-07T04:58:12.050Z,39.40
2022-08-07T05:01:44.692Z,39.40
2022-08-07T05:07:00.766Z,39.40
2022-08-07T05:12:35.972Z,39.40
2022-08-07T05:17:55.137Z,39.40
2022-08-07T05:23:15.974Z,39.40
2022-08-07T05:28:32.243Z,39.40
2022-08-07T05:34:01.387Z,39.40
2022-08-07T05:40:17.133Z,40.10
2022-08-07T05:45:14.159Z,39.40
2022-08-07T05:50:34.954Z,39.30
2022-08-07T05:56:02.184Z,39.30
2022-08-07T06:01:23.788Z,39.20
2022-08-07T06:06:46.123Z,39.30
2022-08-07T06:12:04.015Z,39.30
2022-08-07T06:17:22.385Z,39.40
2022-08-07T06:23:01.679Z,39.40
2022-08-07T06:28:27.322Z,39.50
2022-08-07T06:33:44.028Z,39.50
2022-08-07T06:40:17.253Z,39.50
2022-08-07T06:44:45.518Z,39.40
2022-08-07T06:50:12.779Z,39.50
2022-08-07T06:55:53.453Z,39.50
2022-08-07T07:01:05.682Z,39.40
2022-08-07T07:06:26.338Z,39.50
2022-08-07T07:12:08.282Z,39.50
2022-08-07T07:17:18.639Z,39.50
2022-08-07T07:24:06.626Z,39.50
2022-08-07T07:28:41.948Z,39.40
2022-08-07T07:33:49.038Z,39.40
2022-08-07T07:39:11.742Z,39.40
2022-08-07T07:44:28.732Z,39.30
2022-08-07T07:50:35.392Z,39.20
2022-08-07T07:55:18.668Z,39.20
2022-08-07T08:00:35.141Z,39.30
2022-08-07T08:05:55.785Z,39.70
2022-08-07T08:11:16.173Z,39.50
2022-08-07T08:16:35.103Z,39.20
2022-08-07T08:21:55.323Z,39.10
2022-08-07T08:27:18.973Z,39.20
2022-08-07T08:32:38.218Z,39.10
2022-08-07T08:38:00.486Z,39.20
2022-08-07T08:43:18.682Z,39.10
2022-08-07T08:48:35.940Z,39.20
2022-08-07T08:53:52.080Z,39.20
2022-08-07T08:59:14.019Z,39.20
2022-08-07T09:04:31.742Z,39.20
2022-08-07T09:09:47.945Z,39.30
2022-08-07T09:16:25.379Z,39.20
2022-08-07T09:20:58.637Z,39.20
2022-08-07T09:26:17.231Z,39.20
2022-08-07T09:31:38.870Z,39.10
2022-08-07T09:36:54.657Z,39.10
2022-08-07T09:42:16.970Z,39.10
2022-08-07T09:48:00.218Z,39.20
2022-08-07T09:53:12.854Z,38.90
2022-08-07T09:58:32.263Z,39.00
2022-08-07T10:04:06.373Z,39.00
2022-08-07T10:09:23.678Z,39.00
2022-08-07T10:14:55.039Z,39.10
2022-08-07T10:20:12.952Z,39.00
2022-08-07T10:25:32.947Z,39.10
2022-08-07T10:30:58.752Z,39.00
2022-08-07T10:36:13.732Z,38.90
2022-08-07T10:41:52.247Z,39.00
2022-08-07T10:47:11.799Z,38.90
2022-08-07T10:52:33.553Z,38.90
2022-08-07T10:57:51.616Z,39.00
2022-08-07T11:03:51.197Z,38.90
2022-08-07T11:09:11.312Z,38.80
2022-08-07T11:14:44.160Z,38.90
2022-08-07T11:20:03.201Z,38.80
2022-08-07T11:25:19.731Z,39.50
2022-08-07T11:30:41.405Z,39.00
2022-08-07T11:35:59.572Z,38.60
2022-08-07T11:41:22.216Z,38.60
2022-08-07T11:46:50.512Z,38.70
2022-08-07T11:52:05.686Z,38.70
2022-08-07T11:57:57.911Z,38.70
2022-08-07T12:02:57.790Z,38.50
2022-08-07T12:08:31.863Z,38.40
2022-08-07T12:13:48.050Z,38.30
2022-08-07T12:19:05.736Z,38.10
2022-08-07T12:24:38.342Z,37.90
2022-08-07T12:29:54.025Z,37.60
2022-08-07T12:35:10.727Z,37.60
2022-08-07T12:46:02.745Z,37.30
2022-08-07T12:51:18.715Z,37.20
2022-08-07T12:56:33.656Z,36.90
2022-08-07T13:01:49.022Z,36.80
2022-08-07T13:07:04.720Z,36.90
2022-08-07T13:12:19.724Z,36.80
2022-08-07T13:17:40.961Z,37.00
2022-08-07T13:22:58.012Z,37.00
2022-08-07T13:28:18.526Z,37.00
2022-08-07T13:34:30.524Z,37.10
2022-08-07T13:39:28.197Z,36.90
2022-08-07T13:45:20.488Z,36.60
2022-08-07T13:50:35.435Z,36.60
2022-08-07T13:55:59.969Z,36.50
2022-08-07T14:01:21.874Z,36.40
2022-08-07T14:06:38.570Z,36.60
2022-08-07T14:12:00.996Z,36.70
2022-08-07T14:18:13.097Z,36.80
2022-08-07T14:22:54.732Z,37.00
2022-08-07T14:28:13.643Z,37.10
2022-08-07T14:39:04.790Z,37.40
2022-08-07T14:44:21.780Z,37.30
2022-08-07T14:55:17.710Z,37.20
2022-08-07T15:00:33.710Z,37.80
2022-08-07T15:05:55.326Z,37.20
2022-08-07T15:16:54.947Z,37.00
2022-08-07T15:22:23.267Z,36.70
2022-08-07T15:33:21.022Z,36.70
2022-08-07T15:38:51.661Z,36.50
2022-08-07T15:44:14.767Z,36.40
2022-08-07T15:50:03.853Z,36.30
2022-08-07T15:55:08.886Z,36.50
2022-08-07T16:00:33.527Z,36.50
2022-08-07T16:05:49.687Z,36.60
2022-08-07T16:11:26.174Z,36.50
2022-08-07T16:16:47.988Z,36.40
2022-08-07T16:22:14.874Z,36.50
2022-08-07T16:27:39.912Z,36.40
2022-08-07T16:32:57.141Z,36.40
2022-08-07T16:38:13.031Z,36.30
2022-08-07T16:44:02.541Z,36.30
2022-08-07T16:50:27.931Z,36.30
2022-08-07T16:54:54.922Z,36.40
2022-08-07T17:00:15.015Z,36.30
2022-08-07T17:06:19.788Z,36.20
2022-08-07T17:11:05.785Z,36.40
2022-08-07T17:16:22.015Z,36.20
2022-08-07T17:21:51.126Z,36.30
2022-08-07T17:27:07.740Z,36.30
2022-08-07T17:32:30.676Z,36.30
2022-08-07T17:38:06.745Z,36.50
2022-08-07T17:44:00.818Z,36.70
2022-08-07T17:49:00.713Z,37.50
2022-08-07T17:54:39.820Z,36.80
2022-08-07T17:59:59.715Z,37.00
2022-08-07T18:05:21.635Z,37.00
2022-08-07T18:10:38.082Z,37.30
2022-08-07T18:16:12.732Z,37.50
2022-08-07T18:21:56.681Z,37.60
2022-08-07T18:27:02.759Z,37.80
2022-08-07T18:32:22.118Z,37.80
2022-08-07T18:38:55.628Z,37.90
2022-08-07T18:43:14.932Z,38.70
2022-08-07T18:50:05.143Z,38.20
2022-08-07T18:54:07.011Z,38.20
2022-08-07T18:59:47.341Z,38.20
2022-08-07T19:05:16.562Z,38.40
2022-08-07T19:10:47.877Z,38.30
2022-08-07T19:17:04.639Z,38.40
2022-08-07T19:21:43.955Z,38.50
2022-08-07T19:28:57.547Z,38.60
2022-08-07T19:32:46.459Z,38.60
2022-08-07T19:38:01.715Z,38.70
2022-08-07T19:43:21.769Z,38.70
2022-08-07T19:48:53.626Z,38.80
2022-08-07T19:54:31.145Z,38.90
2022-08-07T19:59:45.183Z,38.90
2022-08-07T20:05:00.717Z,38.90
2022-08-07T20:10:37.085Z,39.00
2022-08-07T20:15:51.797Z,39.00
2022-08-07T20:21:14.830Z,39.10
2022-08-07T20:26:44.852Z,39.20
2022-08-07T20:32:03.653Z,39.30
2022-08-07T20:37:20.749Z,39.40
2022-08-07T20:42:38.096Z,39.50
2022-08-07T20:47:57.802Z,39.50
2022-08-07T20:53:13.746Z,39.60
2022-08-07T20:58:30.729Z,39.70
2022-08-07T21:04:18.619Z,39.80
2022-08-07T21:09:24.585Z,39.80
2022-08-07T21:14:40.749Z,39.90
2022-08-07T21:20:05.467Z,39.90
2022-08-07T21:25:21.786Z,40.00
2022-08-07T21:30:38.055Z,40.10
2022-08-07T21:36:04.978Z,40.10
2022-08-07T21:41:22.143Z,40.20
2022-08-07T21:46:39.745Z,40.30
2022-08-07T21:51:55.961Z,40.30
2022-08-07T21:57:30.798Z,40.30
2022-08-07T22:02:46.542Z,40.30
2022-08-07T22:08:02.050Z,40.30
2022-08-07T22:13:24.705Z,40.40
2022-08-07T22:18:54.218Z,40.40
2022-08-07T22:24:09.746Z,40.40
2022-08-07T22:29:33.863Z,40.50
2022-08-07T22:35:00.114Z,40.50
2022-08-07T22:40:17.788Z,40.50
2022-08-07T22:46:21.631Z,40.60
2022-08-07T22:51:08.031Z,40.70
2022-08-07T22:56:24.035Z,40.60
2022-08-07T23:01:50.572Z,40.70
2022-08-07T23:07:33.590Z,40.70
2022-08-07T23:12:41.754Z,40.70
2022-08-07T23:17:57.751Z,40.80
2022-08-07T23:23:12.791Z,40.80
2022-08-07T23:28:54.367Z,40.80
2022-08-07T23:34:35.390Z,40.80
2022-08-07T23:39:44.841Z,40.80
2022-08-07T23:44:59.751Z,40.90
2022-08-07T23:50:16.535Z,40.90
2022-08-07T23:55:52.071Z,40.90
